Hauptseite
METAR-TAF:

METAR-TAF

Flughäfen :

Militärflugplatz Ghedi

Brescia Ghedi, Italien

Breite: 45-25N, Länge: 010-17E, Höhe: 102 m

Beobachtung

Neuester Wetterbericht von vor 56 Minuten, um 02:55 UTC
Wind 3 kt aus Nordost
Temperatur 16°C
Luftfeuchtigkeit 94%
Luftdruck 1019 hPa
Sichtweite: 8000 m

METAR: LIPL 190255Z 04003KT 8000 NSC 16/15 Q1019 RMK SKC VIS MIN 8000 WIND THR31 05002KT WIND THR13 06002KT BLU

Zeit: 05:51 (03:51 UTC)

Prognose

Neuester Wetterbericht von vor 1 Stunde und 51 Minuten, um 02:00 UTC
Gültige Prognose vom 19 um 03 UTC bis 19 um 12 UTC
Wind 3 kt aus Nord/Nordost
Sichtweite: 8000 m
Leicht bewölkt in der Höhe von 4000 ft
Zeitweise
vom 19 um 03 UTC bis 19 um 06 UTC
Sichtweite: 5000 m
feuchter Dunst

TAF: LIPL 190200Z 1903/1912 02003KT 8000 FEW040 TEMPO 1903/1906 5000 BR

Wetterbeobachtungen und Prognosen von mehr als 4000 Flughäfen (METAR und TAF Bericht).

Die verfügbaren Stationen werden durch gelbe und rote Markierungen auf der Karte dargestellt.

Führen Sie die Maus auf sie, um den Namen der Station zu sehen.

Darauf klicken, um die Beobachtung von Wetterbeobachtungen und Prognosen zu sehen.

Um die Karte zu ändern : klicken Sie auf den grünen Tasten mit einem schwarzen Kreuz Zum Vergrößern, auf den grünen Button mit einem Gedankenstrich zu verkleinern, oder auf die grünen Pfeile für benachbarte Karten.


METAR-TAF: